Time;durP1;ratioP1;P1;durP2;ratioP2;P2;SDS_P1;SDS_P2;PMS_P1;PMS_P2;Temp;Humidity;BMP_temperature;BMP_pressure;BME280_temperature;BME280_humidity;BME280_pressure;Samples;Min_cycle;Max_cycle;Signal;HPM_P1;HPM_P2
2022/03/20 00:02:32;;;;;;;5.25;2.38;;;;;;;11.51;39.57;103229.31;5102090;28;20079;-59
2022/03/20 00:05:00;;;;;;;4.57;2.17;;;;;;;11.49;39.96;103225.97;5103066;28;20063;-59
2022/03/20 00:07:28;;;;;;;7.28;2.50;;;;;;;11.48;39.74;103224.28;5091825;28;20068;-59
2022/03/20 00:09:56;;;;;;;6.30;2.58;;;;;;;11.45;39.74;103217.38;5094713;28;20485;-59
2022/03/20 00:12:23;;;;;;;8.77;2.50;;;;;;;11.44;39.72;103215.69;5097748;28;20083;-58
2022/03/20 00:14:51;;;;;;;6.03;2.20;;;;;;;11.44;40.11;103215.69;5094085;28;20079;-59
2022/03/20 00:17:20;;;;;;;7.32;3.28;;;;;;;11.42;39.86;103206.94;5090338;28;20203;-59
2022/03/20 00:19:50;;;;;;;6.18;2.65;;;;;;;11.39;40.04;103201.91;5103042;28;20063;-60
2022/03/20 00:22:17;;;;;;;5.97;2.72;;;;;;;11.38;40.04;103192.13;5099168;28;20082;-60
2022/03/20 00:24:47;;;;;;;8.23;3.78;;;;;;;11.35;39.94;103195.16;5093281;28;20048;-60
2022/03/20 00:27:15;;;;;;;5.68;2.67;;;;;;;11.34;40.17;103190.78;5101812;28;20087;-58
2022/03/20 00:29:44;;;;;;;4.30;2.30;;;;;;;11.33;40.13;103189.94;5108091;28;20043;-59
2022/03/20 00:32:14;;;;;;;5.80;2.80;;;;;;;11.32;39.91;103184.75;5103196;28;20063;-58
2022/03/20 00:34:42;;;;;;;6.78;2.95;;;;;;;11.31;40.20;103181.22;5101124;28;20055;-57
2022/03/20 00:37:11;;;;;;;5.72;2.63;;;;;;;11.29;39.88;103169.78;5103441;28;20047;-58
2022/03/20 00:39:39;;;;;;;8.25;2.72;;;;;;;11.21;40.13;103163.53;5098904;28;20428;-59
2022/03/20 00:42:07;;;;;;;5.32;2.92;;;;;;;11.22;40.25;103160.69;5089885;28;20056;-59
2022/03/20 00:44:34;;;;;;;6.72;2.80;;;;;;;11.21;40.27;103156.31;5102690;28;20162;-59
2022/03/20 00:47:02;;;;;;;8.25;3.40;;;;;;;11.19;40.38;103152.94;5103186;28;20080;-61
2022/03/20 00:49:30;;;;;;;5.88;2.90;;;;;;;11.17;40.15;103141.50;5098947;28;20049;-59
2022/03/20 00:51:58;;;;;;;9.63;3.47;;;;;;;11.18;40.64;103145.03;5103306;28;20126;-57
2022/03/20 00:54:27;;;;;;;5.03;3.17;;;;;;;11.16;40.20;103145.22;5101350;28;20063;-58
2022/03/20 00:56:55;;;;;;;9.73;3.70;;;;;;;11.15;40.54;103140.00;5093193;28;20059;-59
2022/03/20 00:59:22;;;;;;;8.20;3.55;;;;;;;11.13;40.14;103137.47;5102584;28;20071;-60
2022/03/20 01:01:51;;;;;;;7.32;3.55;;;;;;;11.08;40.44;103134.47;5103024;28;20071;-60
2022/03/20 01:04:19;;;;;;;6.32;3.10;;;;;;;11.07;40.80;103135.47;5093587;28;20082;-59
2022/03/20 01:06:46;;;;;;;9.20;3.45;;;;;;;11.05;40.69;103127.56;5093058;28;20088;-58
2022/03/20 01:09:14;;;;;;;9.90;3.60;;;;;;;11.03;40.96;103124.19;5099821;28;20052;-60
2022/03/20 01:11:43;;;;;;;9.45;3.85;;;;;;;11.04;40.46;103125.88;5096866;28;20075;-59
2022/03/20 01:14:12;;;;;;;6.80;3.75;;;;;;;11.02;40.36;103127.91;5102738;28;20048;-60
2022/03/20 01:16:40;;;;;;;10.10;4.10;;;;;;;11.01;40.71;103107.38;5100282;28;20087;-58
2022/03/20 01:19:07;;;;;;;7.65;4.53;;;;;;;10.99;40.77;103113.94;5102466;28;20084;-59
2022/03/20 01:21:35;;;;;;;9.70;4.13;;;;;;;10.98;40.53;103113.09;5099497;28;20071;-59
2022/03/20 01:24:03;;;;;;;10.13;4.18;;;;;;;10.95;40.75;103108.06;5099819;28;20104;-59
2022/03/20 01:26:30;;;;;;;9.88;4.82;;;;;;;10.95;40.58;103105.38;5095015;28;20079;-60
2022/03/20 01:29:00;;;;;;;8.82;4.63;;;;;;;10.94;41.02;103089.41;5103110;28;20051;-60
2022/03/20 01:31:29;;;;;;;8.75;4.35;;;;;;;10.93;40.58;103079.66;5102041;28;20104;-59
2022/03/20 01:33:58;;;;;;;11.45;5.47;;;;;;;10.89;40.88;103079.13;5097107;28;20036;-59
2022/03/20 01:36:26;;;;;;;9.40;5.40;;;;;;;10.87;40.57;103070.41;5101902;28;20076;-59
2022/03/20 01:38:54;;;;;;;8.45;5.10;;;;;;;10.83;40.85;103076.28;5101937;28;20068;-59
2022/03/20 01:41:22;;;;;;;10.90;5.82;;;;;;;10.78;40.67;103076.78;5097785;28;20044;-60
2022/03/20 01:43:51;;;;;;;12.88;5.55;;;;;;;10.77;41.11;103072.41;5102631;28;20051;-58
2022/03/20 01:46:20;;;;;;;12.75;6.03;;;;;;;10.73;41.01;103074.59;5101656;28;20059;-58
2022/03/20 01:48:49;;;;;;;11.60;5.93;;;;;;;10.69;40.81;103067.88;5094401;28;20112;-59
2022/03/20 01:51:18;;;;;;;9.77;5.32;;;;;;;10.67;40.93;103069.91;5106339;28;20040;-60
2022/03/20 01:53:45;;;;;;;13.38;6.43;;;;;;;10.67;41.12;103058.31;5100868;28;20171;-59
2022/03/20 01:56:13;;;;;;;9.68;6.07;;;;;;;10.68;41.10;103055.44;5105209;28;20082;-59
2022/03/20 01:58:41;;;;;;;12.07;6.50;;;;;;;10.66;40.98;103053.94;5103711;28;20078;-58
2022/03/20 02:01:08;;;;;;;10.65;6.55;;;;;;;10.66;41.11;103053.94;5094454;28;20067;-57
2022/03/20 02:03:38;;;;;;;11.57;6.55;;;;;;;10.66;40.86;103049.41;5105635;28;20040;-58
2022/03/20 02:06:06;;;;;;;10.82;6.28;;;;;;;10.65;40.69;103055.78;5105605;28;20078;-59
2022/03/20 02:08:36;;;;;;;13.52;6.55;;;;;;;10.64;41.04;103051.41;5095755;28;20099;-58
2022/03/20 02:11:03;;;;;;;13.35;8.07;;;;;;;10.63;40.91;103046.19;5104313;28;20071;-58
2022/03/20 02:13:31;;;;;;;9.85;6.28;;;;;;;10.65;41.10;103044.19;5104456;28;20084;-61
2022/03/20 02:15:59;;;;;;;12.65;7.88;;;;;;;10.62;40.48;103029.22;5096756;28;20051;-59
2022/03/20 02:18:27;;;;;;;11.10;6.53;;;;;;;10.63;40.82;103027.38;5100058;28;20134;-59
2022/03/20 02:20:57;;;;;;;14.25;7.15;;;;;;;10.59;40.97;103016.13;5103706;28;20071;-59
2022/03/20 02:23:26;;;;;;;16.00;8.50;;;;;;;10.55;40.34;103022.00;5100745;28;20147;-58
2022/03/20 02:25:54;;;;;;;12.13;7.70;;;;;;;10.55;41.16;103014.78;5098350;28;20051;-58
2022/03/20 02:28:21;;;;;;;15.32;8.57;;;;;;;10.56;40.72;103015.63;5105328;28;20087;-58
2022/03/20 02:30:49;;;;;;;13.07;8.07;;;;;;;10.54;41.04;103013.09;5095031;28;20063;-60
2022/03/20 02:33:18;;;;;;;12.20;7.70;;;;;;;10.50;40.80;103001.00;5103711;28;20075;-59
2022/03/20 02:35:47;;;;;;;13.85;8.70;;;;;;;10.48;40.58;102997.63;5103292;28;20075;-58
2022/03/20 02:38:18;;;;;;;13.60;8.38;;;;;;;10.47;40.68;102998.66;5100145;28;20052;-58
2022/03/20 02:40:51;;;;;;;16.08;8.98;;;;;;;10.46;40.74;102988.06;5104052;28;20075;-57
2022/03/20 02:43:19;;;;;;;16.33;9.13;;;;;;;10.43;41.16;102990.09;5096356;28;20076;-60
2022/03/20 02:45:47;;;;;;;14.25;8.80;;;;;;;10.41;40.79;102993.94;5103566;28;20075;-57
2022/03/20 02:48:16;;;;;;;16.02;9.05;;;;;;;10.41;40.79;102991.25;5102343;28;20052;-60
2022/03/20 02:50:43;;;;;;;13.85;8.98;;;;;;;10.42;41.00;102992.94;5104693;28;20122;-60
2022/03/20 02:53:13;;;;;;;16.13;9.80;;;;;;;10.39;40.78;102991.47;5095989;28;20071;-58
2022/03/20 02:55:44;;;;;;;14.70;9.13;;;;;;;10.37;40.67;102981.88;5104077;28;20055;-59
2022/03/20 02:58:15;;;;;;;13.18;8.20;;;;;;;10.34;40.84;102979.53;5101030;28;20097;-60
2022/03/20 03:00:43;;;;;;;11.55;8.40;;;;;;;10.29;41.04;102979.19;5099936;28;20074;-60
2022/03/20 03:03:12;;;;;;;14.27;8.70;;;;;;;10.27;40.36;102979.38;5104856;28;20122;-59
2022/03/20 03:05:41;;;;;;;14.35;8.77;;;;;;;10.26;40.91;102976.84;5095666;28;20144;-60
2022/03/20 03:10:56;;;;;;;16.90;10.10;;;;;;;10.23;40.75;102971.81;5093556;28;20944;-59
2022/03/20 03:13:28;;;;;;;18.33;10.05;;;;;;;10.23;40.17;102963.75;5102111;28;20078;-58
2022/03/20 03:15:57;;;;;;;17.75;9.93;;;;;;;10.22;40.66;102960.22;5094126;28;20151;-59
2022/03/20 03:18:26;;;;;;;16.08;9.60;;;;;;;10.22;40.63;102956.69;5100708;28;20048;-59
2022/03/20 03:20:54;;;;;;;14.38;10.32;;;;;;;10.14;40.31;102936.00;5095844;28;20075;-59
2022/03/20 03:23:24;;;;;;;18.13;10.48;;;;;;;10.19;40.63;102946.25;5101451;28;20094;-60
2022/03/20 03:25:53;;;;;;;17.33;11.35;;;;;;;10.18;40.51;102950.78;5102393;28;20052;-58
2022/03/20 03:28:20;;;;;;;17.02;10.25;;;;;;;10.05;40.72;102935.16;5098650;28;20147;-59
2022/03/20 03:30:50;;;;;;;14.70;10.63;;;;;;;10.10;40.54;102937.34;5089279;28;20059;-59
2022/03/20 03:33:19;;;;;;;18.27;11.00;;;;;;;10.05;40.59;102924.41;5096753;28;20064;-59
2022/03/20 03:35:51;;;;;;;16.88;11.52;;;;;;;10.01;40.55;102933.81;5103925;28;20064;-59
2022/03/20 03:38:23;;;;;;;16.35;10.88;;;;;;;10.02;40.82;102924.75;5094121;28;20044;-59
2022/03/20 03:40:51;;;;;;;17.48;10.95;;;;;;;10.01;41.09;102916.84;5103465;28;20071;-59
2022/03/20 03:43:19;;;;;;;18.10;12.00;;;;;;;10.01;41.19;102915.00;5104678;28;20082;-59
2022/03/20 03:45:48;;;;;;;16.30;11.57;;;;;;;9.98;40.82;102909.97;5099137;28;20048;-59
2022/03/20 03:48:17;;;;;;;22.13;12.10;;;;;;;9.93;40.42;102909.63;5104080;28;20108;-58
2022/03/20 03:50:47;;;;;;;18.02;11.43;;;;;;;9.96;40.79;102903.06;5099777;28;20107;-58
2022/03/20 03:53:15;;;;;;;17.98;11.18;;;;;;;9.95;40.84;102912.16;5103850;28;20154;-58
2022/03/20 03:55:44;;;;;;;18.02;11.48;;;;;;;9.96;40.97;102900.41;5098642;28;20173;-58
2022/03/20 03:58:12;;;;;;;15.77;10.60;;;;;;;9.95;40.74;102893.34;5094696;28;20477;-59
2022/03/20 04:00:42;;;;;;;16.15;11.57;;;;;;;9.93;40.49;102888.13;5096993;28;20066;-58
2022/03/20 04:03:10;;;;;;;19.15;11.68;;;;;;;9.94;40.59;102886.28;5101784;28;20117;-59
2022/03/20 04:05:40;;;;;;;16.17;11.32;;;;;;;9.89;40.89;102883.28;5103538;28;20051;-58
2022/03/20 04:08:09;;;;;;;21.50;12.20;;;;;;;9.88;40.94;102876.22;5096732;28;20116;-58
2022/03/20 04:10:37;;;;;;;19.45;11.85;;;;;;;9.87;40.92;102879.91;5102875;28;20052;-56
2022/03/20 04:13:05;;;;;;;19.58;11.68;;;;;;;9.90;40.65;102879.56;5099142;28;20064;-58
2022/03/20 04:15:33;;;;;;;18.92;12.02;;;;;;;9.86;41.09;102876.38;5103076;28;20064;-58
2022/03/20 04:18:01;;;;;;;23.85;12.75;;;;;;;9.83;41.05;102867.81;5103859;28;20048;-58
2022/03/20 04:20:29;;;;;;;20.02;12.40;;;;;;;9.79;40.83;102859.25;5101012;28;20512;-58
2022/03/20 04:25:43;;;;;;;21.95;14.05;;;;;;;9.69;40.58;102850.53;5099154;28;20079;-58
2022/03/20 04:28:11;;;;;;;20.05;12.27;;;;;;;9.68;40.32;102841.63;5107688;28;20048;-59
2022/03/20 04:30:39;;;;;;;23.38;13.20;;;;;;;9.70;40.59;102845.00;5098129;28;20106;-59
2022/03/20 04:33:07;;;;;;;19.70;12.52;;;;;;;9.71;41.22;102844.00;5103169;28;20082;-58
2022/03/20 04:35:34;;;;;;;20.15;13.25;;;;;;;9.74;40.36;102838.28;5103171;28;20059;-59
2022/03/20 04:38:05;;;;;;;18.35;12.45;;;;;;;9.73;40.63;102847.34;5101137;28;20067;-58
2022/03/20 04:40:33;;;;;;;18.83;12.85;;;;;;;9.73;40.34;102846.50;5101915;28;20083;-58
2022/03/20 04:43:00;;;;;;;21.05;12.82;;;;;;;9.72;40.28;102832.25;5103090;28;20044;-58
2022/03/20 04:45:28;;;;;;;21.38;13.23;;;;;;;9.72;40.40;102837.63;5102758;28;20082;-58
2022/03/20 04:58:59;;;;;;;19.50;12.88;;;;;;;9.56;40.82;102818.81;5102558;28;20052;-59
2022/03/20 05:01:26;;;;;;;23.15;13.10;;;;;;;9.54;40.07;102812.78;5102386;28;20083;-60
2022/03/20 05:03:54;;;;;;;21.90;14.02;;;;;;;9.57;40.55;102812.44;5093143;28;20052;-59
2022/03/20 05:06:22;;;;;;;20.60;13.05;;;;;;;9.55;40.12;102803.72;5100573;28;20047;-57
2022/03/20 05:08:51;;;;;;;20.15;12.23;;;;;;;9.56;40.33;102802.69;5099208;28;20075;-58
2022/03/20 05:14:04;;;;;;;20.30;14.65;;;;;;;9.52;40.54;102797.84;5103079;28;20059;-59
2022/03/20 05:16:32;;;;;;;19.92;13.38;;;;;;;9.54;40.47;102802.03;5101539;28;20071;-59
2022/03/20 05:19:00;;;;;;;25.38;15.40;;;;;;;9.54;40.26;102798.50;5099258;28;20118;-59
2022/03/20 05:21:27;;;;;;;20.80;14.35;;;;;;;9.54;40.51;102798.50;5102430;28;20055;-59
2022/03/20 05:23:58;;;;;;;24.83;13.38;;;;;;;9.51;40.38;102802.38;5100379;28;20047;-59
2022/03/20 05:26:28;;;;;;;27.25;13.65;;;;;;;9.53;40.63;102788.78;5106023;28;20048;-59
2022/03/20 05:28:56;;;;;;;19.92;13.25;;;;;;;9.52;40.35;102790.63;5106527;28;20059;-59
2022/03/20 05:31:23;;;;;;;20.73;13.52;;;;;;;9.52;40.63;102790.63;5102714;28;20087;-58
2022/03/20 05:33:52;;;;;;;25.65;13.80;;;;;;;9.47;40.00;102779.56;5105947;28;20048;-59
2022/03/20 05:36:19;;;;;;;22.67;13.18;;;;;;;9.45;39.90;102771.66;5106012;28;20147;-58
2022/03/20 05:38:47;;;;;;;23.20;12.75;;;;;;;9.41;40.03;102770.31;5103964;28;20060;-58
2022/03/20 05:44:02;;;;;;;22.13;14.60;;;;;;;9.40;40.32;102767.81;5105118;28;20044;-58
2022/03/20 05:46:29;;;;;;;24.95;14.95;;;;;;;9.38;40.05;102769.81;5102736;28;20056;-59
2022/03/20 05:48:57;;;;;;;20.52;12.98;;;;;;;9.35;40.83;102771.00;5090506;28;20083;-59
2022/03/20 05:51:25;;;;;;;24.60;13.73;;;;;;;9.32;40.24;102765.13;5105329;28;20055;-60
2022/03/20 05:53:53;;;;;;;23.67;13.93;;;;;;;9.32;40.28;102773.16;5100138;28;20087;-59
2022/03/20 05:59:07;;;;;;;23.55;14.05;;;;;;;9.28;40.65;102769.13;5103489;28;20174;-59
2022/03/20 06:01:35;;;;;;;23.20;14.45;;;;;;;9.29;40.81;102766.28;4739595;28;9999729;-59
2022/03/20 06:04:05;;;;;;;20.35;13.27;;;;;;;9.26;40.42;102765.78;5100622;28;20062;-59
2022/03/20 06:06:35;;;;;;;22.25;13.68;;;;;;;9.26;40.25;102773.84;5099814;28;20064;-59
2022/03/20 06:09:03;;;;;;;24.73;13.57;;;;;;;9.25;39.59;102769.47;5101516;28;20492;-59
2022/03/20 06:11:34;;;;;;;21.48;13.73;;;;;;;9.24;40.50;102770.47;5100810;28;20052;-60
2022/03/20 06:14:02;;;;;;;19.88;12.95;;;;;;;9.23;40.24;102766.94;5093976;28;20091;-60
2022/03/20 06:16:30;;;;;;;22.77;14.05;;;;;;;9.23;40.41;102768.78;5094814;28;20084;-60
2022/03/20 06:18:58;;;;;;;20.40;12.85;;;;;;;9.24;40.88;102767.78;5101529;28;20504;-60
2022/03/20 06:21:26;;;;;;;20.60;12.27;;;;;;;9.24;40.30;102759.75;5093718;28;20090;-59
2022/03/20 06:23:54;;;;;;;19.00;13.43;;;;;;;9.25;39.89;102756.91;5094700;28;20521;-59
2022/03/20 06:26:23;;;;;;;21.90;13.63;;;;;;;9.24;40.42;102765.94;5099052;28;20120;-60
2022/03/20 06:28:53;;;;;;;20.70;13.38;;;;;;;9.25;39.81;102769.47;5101773;28;20124;-60
2022/03/20 06:31:22;;;;;;;21.55;12.90;;;;;;;9.22;40.23;102759.91;5101331;28;20086;-59
2022/03/20 06:33:58;;;;;;;22.73;13.65;;;;;;;9.21;40.31;102757.41;5096162;28;20052;-60
2022/03/20 06:36:26;;;;;;;20.88;12.38;;;;;;;9.19;39.85;102749.50;5098022;28;20123;-59
2022/03/20 06:38:54;;;;;;;25.52;13.38;;;;;;;9.14;40.18;102750.00;5091182;28;20131;-58
2022/03/20 06:41:22;;;;;;;22.92;13.40;;;;;;;9.12;40.21;102743.97;5098955;28;20078;-59
2022/03/20 06:43:51;;;;;;;24.38;13.52;;;;;;;9.13;39.37;102744.81;5101231;28;20091;-59
2022/03/20 06:46:20;;;;;;;26.13;13.52;;;;;;;9.08;39.33;102739.09;5100637;28;20544;-59
2022/03/20 06:48:53;;;;;;;20.80;13.50;;;;;;;9.09;39.68;102738.94;5100875;28;20477;-59
2022/03/20 06:51:22;;;;;;;23.35;13.73;;;;;;;9.05;39.72;102737.59;5088210;28;20040;-59
2022/03/20 06:53:50;;;;;;;24.25;13.73;;;;;;;9.08;39.70;102736.41;5100215;28;20075;-59
2022/03/20 06:56:18;;;;;;;25.05;13.48;;;;;;;9.07;40.03;102735.59;5100467;28;20083;-59
2022/03/20 06:58:46;;;;;;;24.48;14.32;;;;;;;9.10;40.24;102735.25;5095397;28;20114;-58
2022/03/20 07:01:15;;;;;;;21.48;14.20;;;;;;;9.12;39.75;102733.25;5097914;28;20051;-59
2022/03/20 07:03:43;;;;;;;21.05;12.77;;;;;;;9.14;39.84;102725.88;5098588;28;20103;-58
2022/03/20 07:06:11;;;;;;;21.30;12.93;;;;;;;9.12;39.62;102717.16;5093128;28;20071;-59
2022/03/20 07:08:38;;;;;;;24.50;13.60;;;;;;;9.16;40.31;102719.50;5101072;28;20146;-58
2022/03/20 07:11:06;;;;;;;20.98;12.85;;;;;;;9.15;40.30;102721.34;5094844;28;20135;-59
2022/03/20 07:13:49;;;;;;;20.15;12.75;;;;;;;9.16;39.93;102717.66;5092992;28;20075;-59
2022/03/20 07:16:19;;;;;;;19.15;11.80;;;;;;;9.16;39.65;102714.97;5099686;28;20068;-59
2022/03/20 07:18:48;;;;;;;21.25;13.07;;;;;;;9.17;39.56;102707.75;5100389;28;20102;-59
2022/03/20 07:21:18;;;;;;;19.30;12.52;;;;;;;9.18;39.62;102696.03;5100834;28;20048;-59
2022/03/20 07:23:46;;;;;;;22.60;13.68;;;;;;;9.14;39.30;102699.03;5100489;28;20138;-59
2022/03/20 07:31:46;;;;;;;19.02;12.10;;;;;;;9.15;40.05;102707.94;5091108;28;20076;-59
2022/03/20 07:34:14;;;;;;;20.40;12.88;;;;;;;9.13;39.80;102708.09;5096132;28;20044;-59
2022/03/20 07:36:42;;;;;;;21.45;12.50;;;;;;;9.16;39.77;102704.25;5097089;28;20131;-59
2022/03/20 07:39:10;;;;;;;20.48;12.77;;;;;;;9.15;39.92;102702.56;5090064;28;20076;-58
2022/03/20 07:41:38;;;;;;;20.88;12.30;;;;;;;9.15;39.75;102689.16;5091988;28;20120;-57
2022/03/20 07:44:05;;;;;;;20.05;12.13;;;;;;;9.15;39.58;102686.47;5093812;28;20044;-59
2022/03/20 07:46:33;;;;;;;21.00;13.25;;;;;;;9.14;38.81;102695.53;5097231;28;20093;-59
2022/03/20 07:49:02;;;;;;;20.60;12.73;;;;;;;9.13;39.72;102697.38;5095792;28;20111;-59
2022/03/20 07:51:31;;;;;;;19.88;13.52;;;;;;;9.14;39.62;102690.16;5094861;28;20139;-59
2022/03/20 07:53:58;;;;;;;19.65;12.70;;;;;;;9.14;39.52;102699.03;5094175;28;20072;-59
2022/03/20 07:56:28;;;;;;;17.58;12.15;;;;;;;9.14;39.08;102692.84;5094692;28;20113;-59
2022/03/20 07:58:56;;;;;;;20.45;12.98;;;;;;;9.11;39.65;102688.66;4737740;28;9999854;-58
2022/03/20 08:01:23;;;;;;;19.20;11.77;;;;;;;9.12;39.55;102694.84;5096357;28;20146;-59
2022/03/20 08:03:51;;;;;;;23.33;11.38;;;;;;;9.12;40.23;102682.28;5098384;28;20040;-59
2022/03/20 08:06:21;;;;;;;18.77;12.13;;;;;;;9.11;38.81;102690.50;5101358;28;20043;-59
2022/03/20 08:08:49;;;;;;;19.77;12.55;;;;;;;9.12;40.12;102686.81;5100525;28;20077;-59
2022/03/20 08:11:17;;;;;;;18.42;12.50;;;;;;;9.13;39.42;102699.22;5096728;28;20767;-58
2022/03/20 08:13:45;;;;;;;19.55;11.52;;;;;;;9.14;39.65;102688.31;5095905;28;20044;-60
2022/03/20 08:16:15;;;;;;;23.27;13.80;;;;;;;9.12;39.53;102684.97;5101466;28;20080;-60
2022/03/20 08:18:44;;;;;;;19.48;12.45;;;;;;;9.14;39.71;102676.75;5095234;28;20052;-58
2022/03/20 08:21:13;;;;;;;20.17;11.80;;;;;;;9.16;39.44;102680.09;5094466;28;20441;-58
2022/03/20 08:23:43;;;;;;;16.90;11.65;;;;;;;9.14;39.34;102668.69;5096453;28;20082;-57
2022/03/20 08:26:11;;;;;;;19.80;11.32;;;;;;;9.14;38.75;102671.38;5094649;28;20123;-58
2022/03/20 08:28:41;;;;;;;20.75;12.23;;;;;;;9.16;39.78;102657.81;5095757;28;20151;-54
2022/03/20 08:31:09;;;;;;;21.65;12.40;;;;;;;9.16;39.34;102663.16;5094427;28;20051;-57
2022/03/20 08:33:40;;;;;;;20.77;13.82;;;;;;;9.12;38.81;102658.13;5096413;28;20078;-58
2022/03/20 08:36:08;;;;;;;21.67;13.45;;;;;;;9.08;38.35;102646.06;5091857;28;20052;-59
2022/03/20 08:38:37;;;;;;;22.75;13.18;;;;;;;9.11;39.78;102645.72;5096280;28;20078;-58
2022/03/20 08:41:07;;;;;;;20.88;12.82;;;;;;;9.14;39.88;102657.97;5090682;28;20040;-58
2022/03/20 08:43:34;;;;;;;20.42;12.38;;;;;;;9.15;39.25;102659.66;5093579;28;20110;-59
2022/03/20 08:46:02;;;;;;;17.77;11.45;;;;;;;9.16;39.31;102658.63;5093815;28;20083;-60
2022/03/20 08:48:30;;;;;;;21.85;14.50;;;;;;;9.18;39.50;102663.84;5098284;28;20471;-60
2022/03/20 08:50:58;;;;;;;18.95;11.48;;;;;;;9.17;39.24;102660.31;5094539;28;20091;-59
2022/03/20 08:53:27;;;;;;;20.02;13.00;;;;;;;9.14;39.47;102666.00;5097490;28;20066;-60
2022/03/20 08:55:55;;;;;;;21.73;12.00;;;;;;;9.12;39.66;102660.81;5096474;28;20048;-61
2022/03/20 08:58:24;;;;;;;18.13;11.70;;;;;;;9.12;39.67;102665.34;5099932;28;20094;-59
2022/03/20 09:00:52;;;;;;;22.25;12.90;;;;;;;9.11;38.85;102656.47;5103907;28;20122;-61
2022/03/20 09:03:19;;;;;;;20.83;12.38;;;;;;;9.10;39.21;102651.25;5093605;28;20043;-61
2022/03/20 09:05:47;;;;;;;21.10;13.07;;;;;;;9.12;39.55;102649.25;5103485;28;20497;-59
2022/03/20 09:08:15;;;;;;;19.02;12.55;;;;;;;9.12;39.02;102641.19;5101382;28;20591;-60
2022/03/20 09:10:43;;;;;;;19.67;12.27;;;;;;;9.10;39.74;102641.38;5106526;28;20076;-59
2022/03/20 09:13:11;;;;;;;18.58;12.68;;;;;;;9.11;39.05;102643.06;5092043;28;20093;-60
2022/03/20 09:15:40;;;;;;;17.23;11.57;;;;;;;9.10;39.02;102627.97;5101344;28;20083;-60
2022/03/20 09:20:53;;;;;;;22.63;13.60;;;;;;;9.12;39.00;102617.06;5096349;28;20437;-60
2022/03/20 09:23:21;;;;;;;22.20;12.95;;;;;;;9.11;38.99;102616.22;5099342;28;20181;-60
2022/03/20 09:25:49;;;;;;;20.08;12.25;;;;;;;9.10;39.34;102608.34;5099154;28;20066;-60
2022/03/20 09:28:17;;;;;;;19.58;12.57;;;;;;;9.14;39.72;102612.38;5101831;28;20048;-59
2022/03/20 09:30:48;;;;;;;19.58;12.50;;;;;;;9.18;39.92;102620.91;5102796;28;20068;-59
2022/03/20 09:33:16;;;;;;;25.95;13.65;;;;;;;9.20;39.25;102617.06;5104745;28;20044;-58
2022/03/20 09:35:44;;;;;;;20.08;11.95;;;;;;;9.20;39.32;102613.53;5096580;28;20040;-60
2022/03/20 09:38:12;;;;;;;20.50;12.57;;;;;;;9.20;38.81;102603.63;5106126;28;20591;-59
2022/03/20 09:40:42;;;;;;;20.83;12.20;;;;;;;9.20;39.58;102603.63;5101490;28;20355;-57
2022/03/20 09:43:09;;;;;;;22.35;13.30;;;;;;;9.24;39.72;102591.56;5097197;28;20048;-59
2022/03/20 09:45:38;;;;;;;19.30;12.10;;;;;;;9.26;39.51;102594.91;5105458;28;20083;-59
2022/03/20 09:48:09;;;;;;;22.30;13.55;;;;;;;9.22;39.81;102592.75;5101955;28;20063;-60
2022/03/20 09:50:38;;;;;;;23.58;14.07;;;;;;;9.24;40.54;102591.56;5103331;28;20063;-60
2022/03/20 09:53:05;;;;;;;23.45;13.35;;;;;;;9.25;40.15;102600.44;5105327;28;20147;-58
2022/03/20 09:55:33;;;;;;;24.73;13.77;;;;;;;9.29;39.74;102616.03;5100426;28;20048;-59
2022/03/20 09:58:01;;;;;;;25.73;14.20;;;;;;;9.31;40.57;102603.28;5106434;28;20044;-59
2022/03/20 10:00:30;;;;;;;28.17;14.25;;;;;;;9.33;40.50;102603.97;5102989;28;20079;-59
2022/03/20 10:02:58;;;;;;;21.73;13.18;;;;;;;9.36;40.43;102605.47;5105274;28;20048;-59
2022/03/20 10:05:28;;;;;;;20.67;13.63;;;;;;;9.36;39.79;102597.41;5103622;28;20048;-60
2022/03/20 10:08:10;;;;;;;22.20;12.73;;;;;;;9.38;40.79;102601.59;5098150;28;20048;-56
2022/03/20 10:10:37;;;;;;;25.38;13.32;;;;;;;9.41;40.65;102611.16;5104817;28;20044;-58
2022/03/20 10:13:12;;;;;;;21.67;13.75;;;;;;;9.41;40.87;102608.47;5099014;28;20052;-59
2022/03/20 10:15:42;;;;;;;20.13;13.70;;;;;;;9.42;40.93;102604.78;5105372;28;20044;-60
2022/03/20 10:18:14;;;;;;;23.05;13.38;;;;;;;9.43;40.83;102598.41;5103029;28;20095;-60
2022/03/20 10:20:46;;;;;;;21.35;13.07;;;;;;;9.46;41.63;102595.38;5096189;28;20067;-58
2022/03/20 10:23:34;;;;;;;22.63;13.85;;;;;;;9.48;41.34;102601.41;5104844;28;20101;-59
2022/03/20 10:26:05;;;;;;;22.20;13.18;;;;;;;9.50;40.93;102596.72;5093489;28;20126;-60
2022/03/20 10:28:36;;;;;;;22.27;14.25;;;;;;;9.48;41.16;102588.00;5105956;28;20052;-60
2022/03/20 10:31:06;;;;;;;22.20;13.82;;;;;;;9.50;41.13;102591.34;5105240;28;20114;-59
2022/03/20 10:33:38;;;;;;;26.17;14.85;;;;;;;9.51;41.12;102603.75;5097932;28;20078;-59
2022/03/20 10:36:15;;;;;;;22.25;12.77;;;;;;;9.54;41.63;102599.88;5104712;28;20071;-59
2022/03/20 10:38:44;;;;;;;;;;;;;;;9.55;42.25;102605.09;5092862;28;20082;-60
2022/03/20 10:41:22;;;;;;;23.60;14.48;;;;;;;9.56;42.30;102595.19;5098476;28;19920;-60
2022/03/20 10:43:51;;;;;;;21.10;13.23;;;;;;;9.55;41.56;102599.72;5105176;28;20048;-59
2022/03/20 10:46:21;;;;;;;24.15;16.08;;;;;;;9.55;41.45;102604.25;5102825;28;20091;-60
2022/03/20 10:48:52;;;;;;;21.60;14.52;;;;;;;9.56;42.22;102606.75;5104713;28;20119;-60
2022/03/20 10:51:37;;;;;;;24.10;15.63;;;;;;;9.56;42.00;102604.06;5103311;28;20060;-59
2022/03/20 10:54:07;;;;;;;25.38;14.55;;;;;;;9.58;42.83;102611.97;5103469;28;20081;-59
2022/03/20 10:56:36;;;;;;;21.75;14.90;;;;;;;9.59;42.71;102621.69;5094928;28;20051;-60
2022/03/20 10:59:14;;;;;;;22.65;15.82;;;;;;;9.59;42.37;102611.78;5105258;28;21002;-59
2022/03/20 11:01:44;;;;;;;22.98;15.02;;;;;;;9.61;42.83;102617.81;5099193;28;20044;-60
2022/03/20 11:04:13;;;;;;;25.30;15.43;;;;;;;9.62;42.69;102611.44;5103343;28;20067;-59
2022/03/20 11:06:43;;;;;;;19.95;13.27;;;;;;;9.64;43.75;102630.06;5097636;28;20048;-60
2022/03/20 11:09:11;;;;;;;24.83;14.57;;;;;;;9.63;43.46;102626.53;5102628;28;20047;-59
2022/03/20 11:11:42;;;;;;;27.05;16.30;;;;;;;9.63;43.97;102628.38;5095927;28;20132;-58
2022/03/20 11:14:10;;;;;;;24.83;15.88;;;;;;;9.60;43.40;102631.41;5101543;28;20052;-59
2022/03/20 11:16:41;;;;;;;23.45;15.93;;;;;;;9.67;43.54;102638.59;5099116;28;20063;-58
2022/03/20 11:19:11;;;;;;;20.88;15.43;;;;;;;9.66;44.60;102628.88;4741350;28;10000072;-59
2022/03/20 11:21:45;;;;;;;22.35;14.80;;;;;;;9.67;44.80;102635.09;5097721;28;20105;-59
2022/03/20 11:24:17;;;;;;;22.60;15.30;;;;;;;9.67;44.17;102618.97;5097529;28;20075;-58
2022/03/20 11:26:50;;;;;;;24.67;15.73;;;;;;;9.69;44.40;102622.31;5093294;28;20119;-59
2022/03/20 11:29:21;;;;;;;23.92;15.50;;;;;;;9.68;44.70;102616.13;5092542;28;20097;-59
2022/03/20 11:31:49;;;;;;;23.58;14.52;;;;;;;9.70;44.42;102632.91;5092950;28;20107;-59
2022/03/20 11:34:18;;;;;;;22.88;15.10;;;;;;;9.72;44.63;102613.94;5094689;28;20048;-59
2022/03/20 11:37:08;;;;;;;25.52;16.27;;;;;;;9.69;44.51;102612.44;5095217;28;20060;-60
2022/03/20 11:39:36;;;;;;;24.33;15.18;;;;;;;9.74;44.55;102620.81;5091405;28;20159;-58
2022/03/20 11:42:25;;;;;;;24.92;15.10;;;;;;;9.70;44.97;102614.09;5097649;28;20455;-58
2022/03/20 11:45:08;;;;;;;25.42;15.40;;;;;;;9.76;44.66;102628.69;5074824;28;20055;-58
2022/03/20 11:47:37;;;;;;;23.77;16.15;;;;;;;9.76;45.19;102618.78;5080268;28;20091;-58
2022/03/20 11:50:17;;;;;;;22.23;15.25;;;;;;;9.78;44.81;102621.28;5070243;28;20118;-58
2022/03/20 11:52:49;;;;;;;23.73;15.32;;;;;;;9.73;45.03;102621.81;5082567;28;20140;-58
2022/03/20 11:55:29;;;;;;;20.15;14.52;;;;;;;9.77;45.14;102603.50;5075231;28;20186;-58
2022/03/20 11:57:59;;;;;;;24.52;14.05;;;;;;;9.82;44.69;102629.84;5081930;28;20068;-59
2022/03/20 12:00:28;;;;;;;23.27;15.35;;;;;;;9.83;45.09;102631.50;5078709;28;20072;-58